sensor_id;sensor_type;location;lat;lon;timestamp;pressure;altitude;pressure_sealevel;temperature;humidity
15405;BME280;7801;48.124;11.590;2023-11-22T00:01:12;95484.56;;;8.82;99.72
15405;BME280;7801;48.124;11.590;2023-11-22T00:03:38;95489.97;;;8.67;100.00
15405;BME280;7801;48.124;11.590;2023-11-22T00:06:04;95486.53;;;8.66;100.00
15405;BME280;7801;48.124;11.590;2023-11-22T00:08:30;95482.66;;;8.53;100.00
15405;BME280;7801;48.124;11.590;2023-11-22T00:10:55;95483.69;;;8.57;100.00
15405;BME280;7801;48.124;11.590;2023-11-22T00:13:22;95486.06;;;8.59;100.00
15405;BME280;7801;48.124;11.590;2023-11-22T00:15:47;95489.94;;;8.72;100.00
15405;BME280;7801;48.124;11.590;2023-11-22T00:18:16;95488.56;;;8.74;99.94
15405;BME280;7801;48.124;11.590;2023-11-22T00:20:43;95487.56;;;8.70;99.87
15405;BME280;7801;48.124;11.590;2023-11-22T00:23:09;95488.66;;;8.69;100.00
15405;BME280;7801;48.124;11.590;2023-11-22T00:25:36;95495.41;;;8.46;100.00
15405;BME280;7801;48.124;11.590;2023-11-22T00:28:05;95493.88;;;8.40;100.00
15405;BME280;7801;48.124;11.590;2023-11-22T00:30:31;95499.69;;;8.37;100.00
15405;BME280;7801;48.124;11.590;2023-11-22T00:32:59;95496.94;;;8.52;100.00
15405;BME280;7801;48.124;11.590;2023-11-22T00:35:25;95493.03;;;8.50;100.00
15405;BME280;7801;48.124;11.590;2023-11-22T00:37:51;95498.03;;;8.51;100.00
15405;BME280;7801;48.124;11.590;2023-11-22T00:40:16;95491.25;;;8.35;100.00
15405;BME280;7801;48.124;11.590;2023-11-22T00:42:41;95491.97;;;8.46;100.00
15405;BME280;7801;48.124;11.590;2023-11-22T00:45:09;95496.72;;;8.49;100.00
15405;BME280;7801;48.124;11.590;2023-11-22T00:47:35;95493.41;;;8.67;100.00
15405;BME280;7801;48.124;11.590;2023-11-22T00:50:04;95496.31;;;8.71;100.00
15405;BME280;7801;48.124;11.590;2023-11-22T00:52:32;95508.41;;;8.43;100.00
15405;BME280;7801;48.124;11.590;2023-11-22T00:55:00;95503.91;;;8.38;100.00
15405;BME280;7801;48.124;11.590;2023-11-22T00:57:36;95499.97;;;8.36;100.00
15405;BME280;7801;48.124;11.590;2023-11-22T01:00:03;95512.41;;;8.35;100.00
15405;BME280;7801;48.124;11.590;2023-11-22T01:02:32;95506.84;;;8.32;100.00
15405;BME280;7801;48.124;11.590;2023-11-22T01:04:58;95512.47;;;8.15;100.00
15405;BME280;7801;48.124;11.590;2023-11-22T01:07:23;95503.81;;;8.09;100.00
15405;BME280;7801;48.124;11.590;2023-11-22T01:09:48;95517.03;;;8.09;100.00
15405;BME280;7801;48.124;11.590;2023-11-22T01:12:14;95511.16;;;8.17;100.00
15405;BME280;7801;48.124;11.590;2023-11-22T01:14:42;95512.19;;;8.21;100.00
15405;BME280;7801;48.124;11.590;2023-11-22T01:17:09;95517.72;;;8.25;100.00
15405;BME280;7801;48.124;11.590;2023-11-22T01:19:36;95518.03;;;8.13;100.00
15405;BME280;7801;48.124;11.590;2023-11-22T01:22:03;95515.59;;;8.27;100.00
15405;BME280;7801;48.124;11.590;2023-11-22T01:24:29;95514.78;;;8.37;100.00
15405;BME280;7801;48.124;11.590;2023-11-22T01:26:54;95520.84;;;8.37;100.00
15405;BME280;7801;48.124;11.590;2023-11-22T01:29:21;95522.16;;;8.40;100.00
15405;BME280;7801;48.124;11.590;2023-11-22T01:31:47;95519.28;;;8.31;100.00
15405;BME280;7801;48.124;11.590;2023-11-22T01:34:14;95524.09;;;8.19;100.00
15405;BME280;7801;48.124;11.590;2023-11-22T01:36:43;95527.00;;;8.22;100.00
15405;BME280;7801;48.124;11.590;2023-11-22T01:39:14;95532.03;;;8.14;100.00
15405;BME280;7801;48.124;11.590;2023-11-22T01:41:44;95528.34;;;8.15;100.00
15405;BME280;7801;48.124;11.590;2023-11-22T01:44:10;95531.31;;;8.03;100.00
15405;BME280;7801;48.124;11.590;2023-11-22T01:46:36;95531.16;;;7.79;100.00
15405;BME280;7801;48.124;11.590;2023-11-22T01:49:03;95537.69;;;7.97;100.00
15405;BME280;7801;48.124;11.590;2023-11-22T01:51:29;95543.50;;;7.94;100.00
15405;BME280;7801;48.124;11.590;2023-11-22T01:53:57;95548.03;;;7.83;100.00
15405;BME280;7801;48.124;11.590;2023-11-22T01:56:25;95545.66;;;7.87;100.00
15405;BME280;7801;48.124;11.590;2023-11-22T01:58:57;95545.59;;;7.97;100.00
15405;BME280;7801;48.124;11.590;2023-11-22T02:01:30;95536.88;;;7.97;100.00
15405;BME280;7801;48.124;11.590;2023-11-22T02:03:56;95544.81;;;7.91;100.00
15405;BME280;7801;48.124;11.590;2023-11-22T02:06:24;95543.50;;;7.94;100.00
15405;BME280;7801;48.124;11.590;2023-11-22T02:08:50;95538.97;;;8.05;100.00
15405;BME280;7801;48.124;11.590;2023-11-22T02:11:18;95545.31;;;8.09;100.00
15405;BME280;7801;48.124;11.590;2023-11-22T02:13:52;95556.56;;;7.60;100.00
15405;BME280;7801;48.124;11.590;2023-11-22T02:16:19;95562.72;;;7.25;100.00
15405;BME280;7801;48.124;11.590;2023-11-22T02:18:47;95566.91;;;6.65;100.00
15405;BME280;7801;48.124;11.590;2023-11-22T02:21:15;95577.97;;;6.67;100.00
15405;BME280;7801;48.124;11.590;2023-11-22T02:23:41;95572.69;;;6.47;100.00
15405;BME280;7801;48.124;11.590;2023-11-22T02:26:07;95574.75;;;6.30;100.00
15405;BME280;7801;48.124;11.590;2023-11-22T02:28:34;95583.94;;;6.17;100.00
15405;BME280;7801;48.124;11.590;2023-11-22T02:30:59;95593.16;;;6.19;100.00
15405;BME280;7801;48.124;11.590;2023-11-22T02:33:25;95588.66;;;6.10;100.00
15405;BME280;7801;48.124;11.590;2023-11-22T02:35:51;95588.94;;;6.24;100.00
15405;BME280;7801;48.124;11.590;2023-11-22T02:38:17;95589.22;;;6.17;100.00
15405;BME280;7801;48.124;11.590;2023-11-22T02:40:44;95592.91;;;6.26;100.00
15405;BME280;7801;48.124;11.590;2023-11-22T02:43:11;95591.06;;;6.16;97.61
15405;BME280;7801;48.124;11.590;2023-11-22T02:45:37;95595.97;;;5.93;97.17
15405;BME280;7801;48.124;11.590;2023-11-22T02:48:04;95604.91;;;5.92;98.50
15405;BME280;7801;48.124;11.590;2023-11-22T02:50:30;95606.50;;;5.93;97.83
15405;BME280;7801;48.124;11.590;2023-11-22T02:53:01;95606.09;;;5.74;98.92
15405;BME280;7801;48.124;11.590;2023-11-22T02:55:28;95607.47;;;5.86;98.78
15405;BME280;7801;48.124;11.590;2023-11-22T02:57:55;95614.03;;;5.79;97.07
15405;BME280;7801;48.124;11.590;2023-11-22T03:00:21;95611.41;;;5.79;96.95
15405;BME280;7801;48.124;11.590;2023-11-22T03:02:49;95615.09;;;5.78;97.84
15405;BME280;7801;48.124;11.590;2023-11-22T03:05:21;95614.00;;;5.74;97.81
15405;BME280;7801;48.124;11.590;2023-11-22T03:07:47;95617.47;;;5.84;97.61
15405;BME280;7801;48.124;11.590;2023-11-22T03:10:13;95622.91;;;5.68;96.86
15405;BME280;7801;48.124;11.590;2023-11-22T03:12:39;95627.06;;;5.59;95.54
15405;BME280;7801;48.124;11.590;2023-11-22T03:15:07;95635.03;;;5.32;95.65
15405;BME280;7801;48.124;11.590;2023-11-22T03:17:33;95632.66;;;5.30;96.49
15405;BME280;7801;48.124;11.590;2023-11-22T03:19:59;95635.00;;;5.27;96.16
15405;BME280;7801;48.124;11.590;2023-11-22T03:22:27;95635.47;;;5.18;95.88
15405;BME280;7801;48.124;11.590;2023-11-22T03:24:56;95643.63;;;5.17;96.34
15405;BME280;7801;48.124;11.590;2023-11-22T03:27:23;95647.78;;;5.13;96.01
15405;BME280;7801;48.124;11.590;2023-11-22T03:29:49;95651.91;;;5.04;95.15
15405;BME280;7801;48.124;11.590;2023-11-22T03:32:15;95653.06;;;4.86;96.04
15405;BME280;7801;48.124;11.590;2023-11-22T03:34:40;95658.81;;;4.83;96.98
15405;BME280;7801;48.124;11.590;2023-11-22T03:37:08;95652.72;;;4.77;97.47
15405;BME280;7801;48.124;11.590;2023-11-22T03:39:34;95671.13;;;4.77;98.42
15405;BME280;7801;48.124;11.590;2023-11-22T03:42:00;95667.72;;;4.82;97.12
15405;BME280;7801;48.124;11.590;2023-11-22T03:44:26;95667.47;;;4.83;98.10
15405;BME280;7801;48.124;11.590;2023-11-22T03:46:54;95672.50;;;4.85;97.98
15405;BME280;7801;48.124;11.590;2023-11-22T03:49:21;95679.22;;;5.03;97.78
15405;BME280;7801;48.124;11.590;2023-11-22T03:51:48;95677.19;;;4.78;96.37
15405;BME280;7801;48.124;11.590;2023-11-22T03:54:14;95685.69;;;4.90;96.33
15405;BME280;7801;48.124;11.590;2023-11-22T03:56:39;95698.00;;;5.11;96.14
15405;BME280;7801;48.124;11.590;2023-11-22T03:59:06;95687.06;;;5.25;96.19
15405;BME280;7801;48.124;11.590;2023-11-22T04:01:31;95693.03;;;5.15;95.53
15405;BME280;7801;48.124;11.590;2023-11-22T04:03:57;95701.13;;;5.40;95.44
15405;BME280;7801;48.124;11.590;2023-11-22T04:06:22;95703.72;;;5.35;95.19
15405;BME280;7801;48.124;11.590;2023-11-22T04:08:48;95711.13;;;5.43;94.43
15405;BME280;7801;48.124;11.590;2023-11-22T04:11:16;95720.16;;;5.21;94.90
15405;BME280;7801;48.124;11.590;2023-11-22T04:13:43;95718.72;;;5.08;95.53
15405;BME280;7801;48.124;11.590;2023-11-22T04:16:09;95720.25;;;5.31;95.12
15405;BME280;7801;48.124;11.590;2023-11-22T04:18:40;95721.72;;;5.16;95.37
15405;BME280;7801;48.124;11.590;2023-11-22T04:21:06;95719.91;;;5.22;95.77
15405;BME280;7801;48.124;11.590;2023-11-22T04:23:33;95714.84;;;4.89;96.83
15405;BME280;7801;48.124;11.590;2023-11-22T04:25:59;95718.06;;;5.23;96.83
15405;BME280;7801;48.124;11.590;2023-11-22T04:28:25;95719.94;;;5.27;96.67
15405;BME280;7801;48.124;11.590;2023-11-22T04:30:52;95722.44;;;5.39;96.06
15405;BME280;7801;48.124;11.590;2023-11-22T04:33:19;95719.00;;;5.38;96.00
15405;BME280;7801;48.124;11.590;2023-11-22T04:35:48;95723.06;;;5.51;95.92
15405;BME280;7801;48.124;11.590;2023-11-22T04:38:14;95726.44;;;5.46;93.73
15405;BME280;7801;48.124;11.590;2023-11-22T04:40:41;95730.59;;;5.42;94.36
15405;BME280;7801;48.124;11.590;2023-11-22T04:43:08;95735.00;;;5.32;95.53
15405;BME280;7801;48.124;11.590;2023-11-22T04:45:34;95745.22;;;5.28;96.22
15405;BME280;7801;48.124;11.590;2023-11-22T04:48:04;95742.44;;;5.40;95.48
15405;BME280;7801;48.124;11.590;2023-11-22T04:50:41;95751.06;;;5.35;94.27
15405;BME280;7801;48.124;11.590;2023-11-22T04:53:06;95749.72;;;5.33;95.40
15405;BME280;7801;48.124;11.590;2023-11-22T04:55:33;95757.00;;;5.52;95.05
15405;BME280;7801;48.124;11.590;2023-11-22T04:58:00;95762.34;;;5.63;93.27
15405;BME280;7801;48.124;11.590;2023-11-22T05:00:25;95756.28;;;5.30;93.50
15405;BME280;7801;48.124;11.590;2023-11-22T05:02:50;95772.13;;;5.35;94.12
15405;BME280;7801;48.124;11.590;2023-11-22T05:05:17;95772.13;;;5.35;91.97
15405;BME280;7801;48.124;11.590;2023-11-22T05:07:43;95775.19;;;5.27;92.45
15405;BME280;7801;48.124;11.590;2023-11-22T05:10:10;95774.19;;;5.33;92.10
15405;BME280;7801;48.124;11.590;2023-11-22T05:12:36;95776.69;;;5.18;91.97
15405;BME280;7801;48.124;11.590;2023-11-22T05:15:03;95779.19;;;5.08;92.07
15405;BME280;7801;48.124;11.590;2023-11-22T05:17:33;95778.59;;;5.01;92.54
15405;BME280;7801;48.124;11.590;2023-11-22T05:19:59;95777.53;;;5.02;92.62
15405;BME280;7801;48.124;11.590;2023-11-22T05:22:24;95781.44;;;4.99;93.65
15405;BME280;7801;48.124;11.590;2023-11-22T05:24:50;95789.28;;;5.16;93.82
15405;BME280;7801;48.124;11.590;2023-11-22T05:27:17;95793.84;;;4.99;93.46
15405;BME280;7801;48.124;11.590;2023-11-22T05:29:42;95792.50;;;4.96;94.49
15405;BME280;7801;48.124;11.590;2023-11-22T05:32:09;95793.28;;;4.97;94.53
15405;BME280;7801;48.124;11.590;2023-11-22T05:34:34;95798.81;;;5.00;94.49
15405;BME280;7801;48.124;11.590;2023-11-22T05:36:59;95799.50;;;5.12;94.54
15405;BME280;7801;48.124;11.590;2023-11-22T05:39:29;95806.53;;;5.07;95.12
15405;BME280;7801;48.124;11.590;2023-11-22T05:41:55;95813.44;;;5.13;94.27
15405;BME280;7801;48.124;11.590;2023-11-22T05:44:21;95819.13;;;5.05;92.36
15405;BME280;7801;48.124;11.590;2023-11-22T05:46:48;95825.88;;;4.96;93.10
15405;BME280;7801;48.124;11.590;2023-11-22T05:49:16;95834.00;;;4.94;93.87
15405;BME280;7801;48.124;11.590;2023-11-22T05:51:43;95827.88;;;5.10;93.81
15405;BME280;7801;48.124;11.590;2023-11-22T05:54:09;95834.81;;;5.00;92.89
15405;BME280;7801;48.124;11.590;2023-11-22T05:56:37;95828.44;;;4.91;93.26
15405;BME280;7801;48.124;11.590;2023-11-22T05:59:05;95841.16;;;4.99;92.79
15405;BME280;7801;48.124;11.590;2023-11-22T06:01:32;95838.38;;;4.89;93.00
15405;BME280;7801;48.124;11.590;2023-11-22T06:03:58;95839.59;;;5.03;93.35
15405;BME280;7801;48.124;11.590;2023-11-22T06:06:24;95847.63;;;5.13;93.29
15405;BME280;7801;48.124;11.590;2023-11-22T06:08:50;95857.03;;;5.09;92.61
15405;BME280;7801;48.124;11.590;2023-11-22T06:11:17;95851.41;;;5.00;92.96
15405;BME280;7801;48.124;11.590;2023-11-22T06:13:46;95860.59;;;4.98;91.93
15405;BME280;7801;48.124;11.590;2023-11-22T06:16:12;95857.91;;;5.14;91.90
15405;BME280;7801;48.124;11.590;2023-11-22T06:18:39;95857.59;;;5.11;91.71
15405;BME280;7801;48.124;11.590;2023-11-22T06:21:13;95868.53;;;5.03;90.99
15405;BME280;7801;48.124;11.590;2023-11-22T06:23:41;95865.84;;;4.98;90.98
15405;BME280;7801;48.124;11.590;2023-11-22T06:26:07;95863.81;;;4.83;91.54
15405;BME280;7801;48.124;11.590;2023-11-22T06:28:32;95876.28;;;4.71;92.62
15405;BME280;7801;48.124;11.590;2023-11-22T06:31:01;95872.63;;;4.94;91.74
15405;BME280;7801;48.124;11.590;2023-11-22T06:33:28;95873.75;;;4.81;91.28
15405;BME280;7801;48.124;11.590;2023-11-22T06:35:54;95875.25;;;4.94;91.62
15405;BME280;7801;48.124;11.590;2023-11-22T06:38:22;95882.59;;;4.92;92.26
15405;BME280;7801;48.124;11.590;2023-11-22T06:40:47;95881.78;;;4.91;92.07
15405;BME280;7801;48.124;11.590;2023-11-22T06:43:13;95887.59;;;4.93;92.69
15405;BME280;7801;48.124;11.590;2023-11-22T06:45:39;95893.22;;;5.02;91.54
15405;BME280;7801;48.124;11.590;2023-11-22T06:48:08;95901.41;;;5.05;90.87
15405;BME280;7801;48.124;11.590;2023-11-22T06:50:36;95897.41;;;4.98;91.16
15405;BME280;7801;48.124;11.590;2023-11-22T06:53:01;95896.62;;;4.80;91.17
15405;BME280;7801;48.124;11.590;2023-11-22T06:55:28;95904.75;;;4.79;91.88
15405;BME280;7801;48.124;11.590;2023-11-22T06:57:56;95898.34;;;4.92;92.41
15405;BME280;7801;48.124;11.590;2023-11-22T07:00:23;95909.44;;;4.94;91.98
15405;BME280;7801;48.124;11.590;2023-11-22T07:02:52;95915.00;;;4.97;91.79
15405;BME280;7801;48.124;11.590;2023-11-22T07:05:18;95928.59;;;5.11;91.70
15405;BME280;7801;48.124;11.590;2023-11-22T07:07:45;95933.00;;;4.89;91.62
15405;BME280;7801;48.124;11.590;2023-11-22T07:10:13;95929.28;;;4.84;92.61
15405;BME280;7801;48.124;11.590;2023-11-22T07:12:41;95924.50;;;4.81;92.93
15405;BME280;7801;48.124;11.590;2023-11-22T07:15:10;95926.78;;;4.95;92.46
15405;BME280;7801;48.124;11.590;2023-11-22T07:17:35;95928.78;;;4.88;92.68
15405;BME280;7801;48.124;11.590;2023-11-22T07:20:01;95930.91;;;5.07;92.51
15405;BME280;7801;48.124;11.590;2023-11-22T07:22:28;95934.94;;;5.15;92.62
15405;BME280;7801;48.124;11.590;2023-11-22T07:24:55;95935.28;;;5.02;92.12
15405;BME280;7801;48.124;11.590;2023-11-22T07:27:25;95929.00;;;5.03;92.42
15405;BME280;7801;48.124;11.590;2023-11-22T07:29:51;95940.50;;;4.97;93.04
15405;BME280;7801;48.124;11.590;2023-11-22T07:32:18;95945.06;;;5.06;93.34
15405;BME280;7801;48.124;11.590;2023-11-22T07:34:48;95949.13;;;5.14;91.37
15405;BME280;7801;48.124;11.590;2023-11-22T07:37:15;95963.16;;;5.03;92.36
15405;BME280;7801;48.124;11.590;2023-11-22T07:39:43;95971.47;;;4.95;92.50
15405;BME280;7801;48.124;11.590;2023-11-22T07:42:09;95970.81;;;5.04;92.70
15405;BME280;7801;48.124;11.590;2023-11-22T07:44:36;95981.19;;;4.94;92.17
15405;BME280;7801;48.124;11.590;2023-11-22T07:47:04;95967.72;;;9.52;100.00
15405;BME280;7801;48.124;11.590;2023-11-22T07:49:39;95984.91;;;10.97;100.00
15405;BME280;7801;48.124;11.590;2023-11-22T07:52:04;95976.47;;;10.90;98.52
15405;BME280;7801;48.124;11.590;2023-11-22T07:54:31;95991.03;;;11.75;86.93
15405;BME280;7801;48.124;11.590;2023-11-22T07:56:56;95992.06;;;12.21;76.96
15405;BME280;7801;48.124;11.590;2023-11-22T07:59:21;95994.38;;;12.47;77.42
15405;BME280;7801;48.124;11.590;2023-11-22T08:01:47;96007.78;;;10.05;68.62
15405;BME280;7801;48.124;11.590;2023-11-22T08:04:14;96000.09;;;8.53;72.08
15405;BME280;7801;48.124;11.590;2023-11-22T08:06:40;96009.41;;;7.78;77.06
15405;BME280;7801;48.124;11.590;2023-11-22T08:09:06;96001.47;;;7.78;77.56
15405;BME280;7801;48.124;11.590;2023-11-22T08:11:36;96011.78;;;7.22;79.56
15405;BME280;7801;48.124;11.590;2023-11-22T08:14:02;96021.56;;;6.89;80.25
15405;BME280;7801;48.124;11.590;2023-11-22T08:16:48;96029.91;;;7.13;80.68
15405;BME280;7801;48.124;11.590;2023-11-22T08:19:14;96037.56;;;7.15;81.17
15405;BME280;7801;48.124;11.590;2023-11-22T08:21:43;96042.00;;;7.04;80.04
15405;BME280;7801;48.124;11.590;2023-11-22T08:24:10;96049.28;;;6.65;81.93
15405;BME280;7801;48.124;11.590;2023-11-22T08:26:38;96052.13;;;6.85;81.34
15405;BME280;7801;48.124;11.590;2023-11-22T08:29:04;96055.72;;;7.06;81.88
15405;BME280;7801;48.124;11.590;2023-11-22T08:31:31;96059.38;;;7.00;80.77
15405;BME280;7801;48.124;11.590;2023-11-22T08:33:56;96046.50;;;6.77;80.48
15405;BME280;7801;48.124;11.590;2023-11-22T08:36:22;96052.78;;;6.71;80.82
15405;BME280;7801;48.124;11.590;2023-11-22T08:38:49;96050.22;;;7.13;81.92
15405;BME280;7801;48.124;11.590;2023-11-22T08:41:16;96037.41;;;10.22;100.00
15405;BME280;7801;48.124;11.590;2023-11-22T08:43:43;96034.94;;;12.76;82.19
15405;BME280;7801;48.124;11.590;2023-11-22T08:46:09;96033.53;;;13.62;70.85
15405;BME280;7801;48.124;11.590;2023-11-22T08:48:35;96040.38;;;14.51;63.41
15405;BME280;7801;48.124;11.590;2023-11-22T08:51:01;96044.78;;;14.91;53.93
15405;BME280;7801;48.124;11.590;2023-11-22T08:53:29;96060.84;;;15.13;53.06
15405;BME280;7801;48.124;11.590;2023-11-22T08:55:55;96058.69;;;15.24;52.01
15405;BME280;7801;48.124;11.590;2023-11-22T08:58:20;96063.38;;;15.41;51.38
15405;BME280;7801;48.124;11.590;2023-11-22T09:00:46;96063.06;;;15.20;49.64
15405;BME280;7801;48.124;11.590;2023-11-22T09:03:12;96092.97;;;11.89;51.95
15405;BME280;7801;48.124;11.590;2023-11-22T09:05:42;96089.53;;;9.62;58.82
15405;BME280;7801;48.124;11.590;2023-11-22T09:08:08;96098.97;;;8.42;64.99
15405;BME280;7801;48.124;11.590;2023-11-22T09:10:41;96107.06;;;7.26;71.49
15405;BME280;7801;48.124;11.590;2023-11-22T09:13:10;96099.97;;;6.72;74.86
15405;BME280;7801;48.124;11.590;2023-11-22T09:15:36;96099.72;;;6.20;77.53
15405;BME280;7801;48.124;11.590;2023-11-22T09:18:04;96105.53;;;6.00;80.08
15405;BME280;7801;48.124;11.590;2023-11-22T09:20:31;96109.41;;;5.76;81.41
15405;BME280;7801;48.124;11.590;2023-11-22T09:22:57;96112.75;;;5.71;83.05
15405;BME280;7801;48.124;11.590;2023-11-22T09:25:24;96117.66;;;6.01;82.53
15405;BME280;7801;48.124;11.590;2023-11-22T09:27:52;96124.19;;;5.82;82.65
15405;BME280;7801;48.124;11.590;2023-11-22T09:30:31;96122.91;;;5.84;82.55
15405;BME280;7801;48.124;11.590;2023-11-22T09:33:12;96125.59;;;5.68;83.56
15405;BME280;7801;48.124;11.590;2023-11-22T09:35:44;96129.69;;;5.59;82.44
15405;BME280;7801;48.124;11.590;2023-11-22T09:38:11;96126.69;;;5.33;83.79
15405;BME280;7801;48.124;11.590;2023-11-22T09:40:43;96138.59;;;5.41;84.05
15405;BME280;7801;48.124;11.590;2023-11-22T09:43:11;96140.38;;;5.35;83.80
15405;BME280;7801;48.124;11.590;2023-11-22T09:45:37;96138.00;;;5.34;84.52
15405;BME280;7801;48.124;11.590;2023-11-22T09:48:18;96135.28;;;5.29;84.84
15405;BME280;7801;48.124;11.590;2023-11-22T09:51:03;96130.81;;;5.29;85.36
15405;BME280;7801;48.124;11.590;2023-11-22T09:54:03;96134.66;;;5.38;84.57
15405;BME280;7801;48.124;11.590;2023-11-22T09:56:38;96138.94;;;5.11;84.87
15405;BME280;7801;48.124;11.590;2023-11-22T09:59:07;96145.63;;;5.02;84.63
15405;BME280;7801;48.124;11.590;2023-11-22T10:01:41;96138.56;;;5.19;85.26
15405;BME280;7801;48.124;11.590;2023-11-22T10:04:08;96140.38;;;5.52;82.87
15405;BME280;7801;48.124;11.590;2023-11-22T10:06:37;96142.28;;;5.57;82.27
15405;BME280;7801;48.124;11.590;2023-11-22T10:09:04;96142.59;;;5.43;81.48
15405;BME280;7801;48.124;11.590;2023-11-22T10:11:37;96137.28;;;5.38;82.22
15405;BME280;7801;48.124;11.590;2023-11-22T10:14:08;96146.09;;;5.49;82.06
15405;BME280;7801;48.124;11.590;2023-11-22T10:16:34;96140.97;;;5.76;81.54
15405;BME280;7801;48.124;11.590;2023-11-22T10:18:59;96134.94;;;5.59;80.92
15405;BME280;7801;48.124;11.590;2023-11-22T10:21:29;96136.22;;;5.56;81.08
15405;BME280;7801;48.124;11.590;2023-11-22T10:24:03;96136.28;;;5.78;80.74
15405;BME280;7801;48.124;11.590;2023-11-22T10:26:29;96140.53;;;5.29;81.98
15405;BME280;7801;48.124;11.590;2023-11-22T10:28:56;96139.56;;;5.51;82.48
15405;BME280;7801;48.124;11.590;2023-11-22T10:31:22;96143.25;;;5.50;81.32
15405;BME280;7801;48.124;11.590;2023-11-22T10:33:50;96148.66;;;5.44;82.33
15405;BME280;7801;48.124;11.590;2023-11-22T10:36:19;96149.78;;;5.48;81.35
15405;BME280;7801;48.124;11.590;2023-11-22T10:38:47;96156.88;;;5.31;80.77
15405;BME280;7801;48.124;11.590;2023-11-22T10:41:14;96144.75;;;5.46;81.15
15405;BME280;7801;48.124;11.590;2023-11-22T10:43:44;96143.87;;;5.41;83.33
15405;BME280;7801;48.124;11.590;2023-11-22T10:46:12;96148.19;;;5.47;82.30
15405;BME280;7801;48.124;11.590;2023-11-22T10:48:38;96145.97;;;5.56;82.20
15405;BME280;7801;48.124;11.590;2023-11-22T10:51:05;96149.75;;;5.81;80.13
15405;BME280;7801;48.124;11.590;2023-11-22T10:53:45;96145.53;;;5.80;79.37
15405;BME280;7801;48.124;11.590;2023-11-22T10:56:15;96149.81;;;5.86;79.09
15405;BME280;7801;48.124;11.590;2023-11-22T10:58:56;96154.06;;;5.71;79.12
15405;BME280;7801;48.124;11.590;2023-11-22T11:01:26;96152.81;;;6.12;77.84
15405;BME280;7801;48.124;11.590;2023-11-22T11:04:09;96159.78;;;6.01;75.78
15405;BME280;7801;48.124;11.590;2023-11-22T11:06:37;96169.94;;;5.76;77.02
15405;BME280;7801;48.124;11.590;2023-11-22T11:09:06;96162.03;;;5.76;77.88
15405;BME280;7801;48.124;11.590;2023-11-22T11:11:35;96169.22;;;5.80;78.48
15405;BME280;7801;48.124;11.590;2023-11-22T11:14:17;96184.28;;;5.85;77.43
15405;BME280;7801;48.124;11.590;2023-11-22T11:16:43;96180.78;;;5.96;76.81
15405;BME280;7801;48.124;11.590;2023-11-22T11:19:14;96176.47;;;5.73;77.88
15405;BME280;7801;48.124;11.590;2023-11-22T11:21:40;96184.47;;;5.95;77.61
15405;BME280;7801;48.124;11.590;2023-11-22T11:24:06;96182.81;;;6.11;76.37
15405;BME280;7801;48.124;11.590;2023-11-22T11:26:33;96192.00;;;6.08;76.17
15405;BME280;7801;48.124;11.590;2023-11-22T11:29:04;96193.16;;;5.79;75.96
15405;BME280;7801;48.124;11.590;2023-11-22T11:31:38;96197.37;;;5.97;76.40
15405;BME280;7801;48.124;11.590;2023-11-22T11:34:08;96182.78;;;5.89;76.09
15405;BME280;7801;48.124;11.590;2023-11-22T11:36:37;96168.41;;;5.97;75.63
15405;BME280;7801;48.124;11.590;2023-11-22T11:39:07;96169.53;;;6.01;76.30
15405;BME280;7801;48.124;11.590;2023-11-22T11:41:41;96165.19;;;6.33;74.85
15405;BME280;7801;48.124;11.590;2023-11-22T11:44:10;96165.00;;;6.18;73.06
15405;BME280;7801;48.124;11.590;2023-11-22T11:46:41;96162.94;;;6.69;71.76
15405;BME280;7801;48.124;11.590;2023-11-22T11:49:10;96158.25;;;6.27;73.99
15405;BME280;7801;48.124;11.590;2023-11-22T11:51:36;96156.09;;;6.46;74.05
15405;BME280;7801;48.124;11.590;2023-11-22T11:54:03;96150.84;;;6.46;73.17
15405;BME280;7801;48.124;11.590;2023-11-22T11:56:28;96142.91;;;6.41;74.23
15405;BME280;7801;48.124;11.590;2023-11-22T11:58:56;96145.94;;;6.54;73.25
15405;BME280;7801;48.124;11.590;2023-11-22T12:01:27;96144.50;;;6.42;73.19
15405;BME280;7801;48.124;11.590;2023-11-22T12:03:53;96155.88;;;6.26;73.70
15405;BME280;7801;48.124;11.590;2023-11-22T12:06:18;96146.50;;;6.35;73.36
15405;BME280;7801;48.124;11.590;2023-11-22T12:08:45;96147.09;;;6.64;72.51
15405;BME280;7801;48.124;11.590;2023-11-22T12:11:14;96152.69;;;6.45;73.73
15405;BME280;7801;48.124;11.590;2023-11-22T12:13:41;96151.94;;;6.50;73.80
15405;BME280;7801;48.124;11.590;2023-11-22T12:16:14;96153.13;;;6.59;72.56
15405;BME280;7801;48.124;11.590;2023-11-22T12:18:48;96163.91;;;6.58;73.39
15405;BME280;7801;48.124;11.590;2023-11-22T12:21:17;96175.06;;;6.43;72.46
15405;BME280;7801;48.124;11.590;2023-11-22T12:23:44;96179.09;;;6.29;73.18
15405;BME280;7801;48.124;11.590;2023-11-22T12:26:19;96193.75;;;6.19;71.74
15405;BME280;7801;48.124;11.590;2023-11-22T12:28:46;96192.47;;;6.05;71.96
15405;BME280;7801;48.124;11.590;2023-11-22T12:31:17;96197.34;;;6.13;71.46
15405;BME280;7801;48.124;11.590;2023-11-22T12:33:43;96195.22;;;5.94;72.45
15405;BME280;7801;48.124;11.590;2023-11-22T12:36:10;96193.47;;;5.99;70.99
15405;BME280;7801;48.124;11.590;2023-11-22T12:38:40;96199.38;;;5.90;72.71
15405;BME280;7801;48.124;11.590;2023-11-22T12:41:06;96191.00;;;5.93;73.58
15405;BME280;7801;48.124;11.590;2023-11-22T12:43:35;96188.69;;;5.96;74.45
15405;BME280;7801;48.124;11.590;2023-11-22T12:46:05;96186.12;;;6.01;71.81
15405;BME280;7801;48.124;11.590;2023-11-22T12:48:33;96180.84;;;5.84;73.07
15405;BME280;7801;48.124;11.590;2023-11-22T12:51:00;96186.78;;;5.75;72.05
15405;BME280;7801;48.124;11.590;2023-11-22T12:53:26;96190.03;;;5.65;72.45
15405;BME280;7801;48.124;11.590;2023-11-22T12:55:54;96198.91;;;5.76;72.93
15405;BME280;7801;48.124;11.590;2023-11-22T12:58:23;96193.16;;;5.79;72.13
15405;BME280;7801;48.124;11.590;2023-11-22T13:00:52;96193.41;;;5.94;73.34
15405;BME280;7801;48.124;11.590;2023-11-22T13:03:24;96201.59;;;5.81;75.04
15405;BME280;7801;48.124;11.590;2023-11-22T13:05:53;96216.91;;;5.84;75.47
15405;BME280;7801;48.124;11.590;2023-11-22T13:08:18;96206.84;;;5.64;77.08
15405;BME280;7801;48.124;11.590;2023-11-22T13:10:50;96199.19;;;5.63;76.95